sensor_id;sensor_type;location;lat;lon;timestamp;pressure;altitude;pressure_sealevel;temperature;humidity
39949;BME280;29070;48.102;-1.652;2022-12-05T00:00:24;101370.53;;;5.25;77.04
39949;BME280;29070;48.102;-1.652;2022-12-05T00:05:25;101381.78;;;5.26;76.36
39949;BME280;29070;48.102;-1.652;2022-12-05T00:10:25;101375.75;;;5.25;76.74
39949;BME280;29070;48.102;-1.652;2022-12-05T00:15:27;101378.78;;;5.21;76.46
39949;BME280;29070;48.102;-1.652;2022-12-05T00:20:27;101381.53;;;5.19;76.59
39949;BME280;29070;48.102;-1.652;2022-12-05T00:25:28;101381.53;;;5.19;76.56
39949;BME280;29070;48.102;-1.652;2022-12-05T00:30:28;101386.44;;;5.22;76.62
39949;BME280;29070;48.102;-1.652;2022-12-05T00:35:28;101386.44;;;5.22;76.74
39949;BME280;29070;48.102;-1.652;2022-12-05T00:40:29;101398.09;;;5.18;76.69
39949;BME280;29070;48.102;-1.652;2022-12-05T00:45:29;101404.28;;;5.17;76.61
39949;BME280;29070;48.102;-1.652;2022-12-05T00:50:29;101406.72;;;5.19;76.77
39949;BME280;29070;48.102;-1.652;2022-12-05T00:55:30;101412.44;;;5.22;77.08
39949;BME280;29070;48.102;-1.652;2022-12-05T01:00:30;101415.38;;;5.19;76.62
39949;BME280;29070;48.102;-1.652;2022-12-05T01:05:32;101413.97;;;5.15;76.41
39949;BME280;29070;48.102;-1.652;2022-12-05T01:10:33;101419.50;;;5.12;76.77
39949;BME280;29070;48.102;-1.652;2022-12-05T01:15:36;101412.38;;;5.14;76.54
39949;BME280;29070;48.102;-1.652;2022-12-05T01:20:38;101419.06;;;5.16;76.72
39949;BME280;29070;48.102;-1.652;2022-12-05T01:25:40;101414.28;;;5.12;76.65
39949;BME280;29070;48.102;-1.652;2022-12-05T01:30:45;101421.50;;;5.18;77.10
39949;BME280;29070;48.102;-1.652;2022-12-05T01:35:46;101431.94;;;5.18;76.89
39949;BME280;29070;48.102;-1.652;2022-12-05T01:40:46;101442.06;;;5.21;77.07
39949;BME280;29070;48.102;-1.652;2022-12-05T01:45:47;101431.25;;;5.16;76.87
39949;BME280;29070;48.102;-1.652;2022-12-05T01:50:48;101436.31;;;5.18;76.97
39949;BME280;29070;48.102;-1.652;2022-12-05T01:55:49;101430.84;;;5.21;76.93
39949;BME280;29070;48.102;-1.652;2022-12-05T02:00:50;101436.84;;;5.21;76.95
39949;BME280;29070;48.102;-1.652;2022-12-05T02:05:52;101437.41;;;5.25;77.13
39949;BME280;29070;48.102;-1.652;2022-12-05T02:10:55;101434.66;;;5.26;77.33
39949;BME280;29070;48.102;-1.652;2022-12-05T02:16:10;101441.47;;;5.27;77.14
39949;BME280;29070;48.102;-1.652;2022-12-05T02:26:47;101441.19;;;5.30;77.34
39949;BME280;29070;48.102;-1.652;2022-12-05T02:32:15;101436.28;;;5.27;77.35
39949;BME280;29070;48.102;-1.652;2022-12-05T02:37:29;101441.19;;;5.30;77.41
39949;BME280;29070;48.102;-1.652;2022-12-05T02:43:05;101444.47;;;5.32;77.54
39949;BME280;29070;48.102;-1.652;2022-12-05T02:48:07;101448.06;;;5.31;77.37
39949;BME280;29070;48.102;-1.652;2022-12-05T02:53:12;101445.34;;;5.23;77.17
39949;BME280;29070;48.102;-1.652;2022-12-05T02:58:19;101450.41;;;5.25;77.53
39949;BME280;29070;48.102;-1.652;2022-12-05T03:03:22;101446.47;;;5.21;77.43
39949;BME280;29070;48.102;-1.652;2022-12-05T03:08:27;101447.25;;;5.21;77.16
39949;BME280;29070;48.102;-1.652;2022-12-05T03:13:42;101457.69;;;5.21;77.43
39949;BME280;29070;48.102;-1.652;2022-12-05T03:18:50;101453.41;;;5.20;77.24
39949;BME280;29070;48.102;-1.652;2022-12-05T03:23:59;101450.59;;;5.13;77.27
39949;BME280;29070;48.102;-1.652;2022-12-05T03:34:17;101467.28;;;5.11;77.91
39949;BME280;29070;48.102;-1.652;2022-12-05T03:39:23;101469.88;;;5.11;77.36
39949;BME280;29070;48.102;-1.652;2022-12-05T03:44:36;101484.25;;;5.15;77.69
39949;BME280;29070;48.102;-1.652;2022-12-05T03:49:50;101490.16;;;5.17;77.40
39949;BME280;29070;48.102;-1.652;2022-12-05T03:54:55;101490.97;;;5.18;77.53
39949;BME280;29070;48.102;-1.652;2022-12-05T04:00:03;101496.31;;;5.16;77.47
39949;BME280;29070;48.102;-1.652;2022-12-05T04:05:09;101501.38;;;5.18;77.55
39949;BME280;29070;48.102;-1.652;2022-12-05T04:10:15;101493.44;;;5.19;77.62
39949;BME280;29070;48.102;-1.652;2022-12-05T04:15:24;101503.72;;;5.21;77.92
39949;BME280;29070;48.102;-1.652;2022-12-05T04:20:36;101505.06;;;5.15;77.71
39949;BME280;29070;48.102;-1.652;2022-12-05T04:36:32;101506.72;;;5.16;77.88
39949;BME280;29070;48.102;-1.652;2022-12-05T04:41:41;101511.66;;;5.19;77.98
39949;BME280;29070;48.102;-1.652;2022-12-05T04:46:44;101507.66;;;5.15;78.03
39949;BME280;29070;48.102;-1.652;2022-12-05T04:51:50;101522.34;;;5.16;78.12
39949;BME280;29070;48.102;-1.652;2022-12-05T04:56:55;101516.00;;;5.19;78.20
39949;BME280;29070;48.102;-1.652;2022-12-05T05:02:06;101528.34;;;5.16;78.15
39949;BME280;29070;48.102;-1.652;2022-12-05T05:07:08;101527.00;;;5.12;78.05
39949;BME280;29070;48.102;-1.652;2022-12-05T05:12:10;101535.47;;;5.14;78.15
39949;BME280;29070;48.102;-1.652;2022-12-05T05:17:10;101527.25;;;5.19;78.33
39949;BME280;29070;48.102;-1.652;2022-12-05T05:22:11;101530.28;;;5.24;78.54
39949;BME280;29070;48.102;-1.652;2022-12-05T05:27:11;101541.50;;;5.25;78.32
39949;BME280;29070;48.102;-1.652;2022-12-05T05:32:11;101543.84;;;5.28;78.59
39949;BME280;29070;48.102;-1.652;2022-12-05T05:37:12;101551.09;;;5.24;78.28
39949;BME280;29070;48.102;-1.652;2022-12-05T05:42:12;101550.97;;;5.16;78.06
39949;BME280;29070;48.102;-1.652;2022-12-05T05:47:12;101549.31;;;5.15;78.12
39949;BME280;29070;48.102;-1.652;2022-12-05T05:52:13;101552.44;;;5.19;78.35
39949;BME280;29070;48.102;-1.652;2022-12-05T05:57:13;101556.72;;;5.20;78.40
39949;BME280;29070;48.102;-1.652;2022-12-05T06:02:13;101553.28;;;5.19;78.25
39949;BME280;29070;48.102;-1.652;2022-12-05T06:07:14;101567.94;;;5.20;78.30
39949;BME280;29070;48.102;-1.652;2022-12-05T06:12:14;101569.03;;;5.18;78.34
39949;BME280;29070;48.102;-1.652;2022-12-05T06:17:15;101572.03;;;5.13;78.11
39949;BME280;29070;48.102;-1.652;2022-12-05T06:22:15;101577.94;;;5.15;78.39
39949;BME280;29070;48.102;-1.652;2022-12-05T06:27:16;101579.59;;;5.16;78.19
39949;BME280;29070;48.102;-1.652;2022-12-05T06:32:16;101586.72;;;5.14;78.33
39949;BME280;29070;48.102;-1.652;2022-12-05T06:37:16;101599.47;;;5.17;78.48
39949;BME280;29070;48.102;-1.652;2022-12-05T06:42:17;101613.28;;;5.18;78.39
39949;BME280;29070;48.102;-1.652;2022-12-05T06:47:17;101619.16;;;5.20;78.37
39949;BME280;29070;48.102;-1.652;2022-12-05T06:52:17;101621.63;;;5.21;78.54
39949;BME280;29070;48.102;-1.652;2022-12-05T06:57:18;101631.06;;;5.22;78.55
39949;BME280;29070;48.102;-1.652;2022-12-05T07:02:18;101638.19;;;5.20;78.29
39949;BME280;29070;48.102;-1.652;2022-12-05T07:07:18;101633.69;;;5.22;78.60
39949;BME280;29070;48.102;-1.652;2022-12-05T07:12:19;101650.13;;;5.23;78.46
39949;BME280;29070;48.102;-1.652;2022-12-05T07:17:20;101643.28;;;5.22;78.44
39949;BME280;29070;48.102;-1.652;2022-12-05T07:22:21;101636.84;;;5.26;78.56
39949;BME280;29070;48.102;-1.652;2022-12-05T07:27:22;101633.97;;;5.29;78.63
39949;BME280;29070;48.102;-1.652;2022-12-05T07:32:22;101633.00;;;5.30;78.48
39949;BME280;29070;48.102;-1.652;2022-12-05T07:37:22;101652.03;;;5.30;78.55
39949;BME280;29070;48.102;-1.652;2022-12-05T07:42:23;101653.97;;;5.28;78.40
39949;BME280;29070;48.102;-1.652;2022-12-05T07:47:23;101658.50;;;5.26;78.27
39949;BME280;29070;48.102;-1.652;2022-12-05T07:52:23;101656.69;;;5.27;78.45
39949;BME280;29070;48.102;-1.652;2022-12-05T07:57:24;101677.66;;;5.25;78.32
39949;BME280;29070;48.102;-1.652;2022-12-05T08:02:24;101686.00;;;5.29;78.49
39949;BME280;29070;48.102;-1.652;2022-12-05T08:07:25;101705.09;;;5.29;78.30
39949;BME280;29070;48.102;-1.652;2022-12-05T08:12:25;101711.66;;;5.33;78.52
39949;BME280;29070;48.102;-1.652;2022-12-05T08:17:28;101709.88;;;5.34;78.49
39949;BME280;29070;48.102;-1.652;2022-12-05T08:22:28;101710.69;;;5.34;78.39
39949;BME280;29070;48.102;-1.652;2022-12-05T08:27:29;101714.25;;;5.33;78.40
39949;BME280;29070;48.102;-1.652;2022-12-05T08:32:29;101731.25;;;5.38;78.71
39949;BME280;29070;48.102;-1.652;2022-12-05T08:37:29;101728.13;;;5.44;78.72
39949;BME280;29070;48.102;-1.652;2022-12-05T08:42:30;101730.56;;;5.45;78.73
39949;BME280;29070;48.102;-1.652;2022-12-05T08:47:30;101740.56;;;5.50;78.65
39949;BME280;29070;48.102;-1.652;2022-12-05T08:52:31;101733.31;;;5.53;78.59
39949;BME280;29070;48.102;-1.652;2022-12-05T08:57:31;101726.59;;;5.51;78.33
39949;BME280;29070;48.102;-1.652;2022-12-05T09:02:31;101727.28;;;5.53;78.42
39949;BME280;29070;48.102;-1.652;2022-12-05T09:07:33;101727.97;;;5.55;78.33
39949;BME280;29070;48.102;-1.652;2022-12-05T09:12:35;101734.00;;;5.56;78.48
39949;BME280;29070;48.102;-1.652;2022-12-05T09:17:36;101737.00;;;5.61;78.63
39949;BME280;29070;48.102;-1.652;2022-12-05T09:22:36;101753.06;;;5.66;78.42
39949;BME280;29070;48.102;-1.652;2022-12-05T09:27:37;101744.25;;;5.67;78.21
39949;BME280;29070;48.102;-1.652;2022-12-05T09:32:37;101756.34;;;5.68;78.15
39949;BME280;29070;48.102;-1.652;2022-12-05T09:37:37;101754.97;;;5.73;78.47
39949;BME280;29070;48.102;-1.652;2022-12-05T10:03:46;101766.50;;;5.90;78.29
39949;BME280;29070;48.102;-1.652;2022-12-05T10:09:04;101769.22;;;5.89;78.30
39949;BME280;29070;48.102;-1.652;2022-12-05T10:19:33;101775.31;;;5.99;78.24
39949;BME280;29070;48.102;-1.652;2022-12-05T10:24:44;101770.75;;;6.01;78.22
39949;BME280;29070;48.102;-1.652;2022-12-05T10:30:17;101763.50;;;6.05;78.04
39949;BME280;29070;48.102;-1.652;2022-12-05T10:35:24;101768.94;;;6.11;78.02
39949;BME280;29070;48.102;-1.652;2022-12-05T10:40:26;101770.03;;;6.19;78.10
39949;BME280;29070;48.102;-1.652;2022-12-05T10:45:29;101772.50;;;6.20;78.17
39949;BME280;29070;48.102;-1.652;2022-12-05T10:50:35;101768.50;;;6.26;77.94
39949;BME280;29070;48.102;-1.652;2022-12-05T10:55:39;101764.94;;;6.27;78.04
39949;BME280;29070;48.102;-1.652;2022-12-05T11:00:42;101756.47;;;6.25;77.70
39949;BME280;29070;48.102;-1.652;2022-12-05T11:05:48;101756.88;;;6.20;77.84
39949;BME280;29070;48.102;-1.652;2022-12-05T11:11:00;101743.97;;;6.19;77.45
39949;BME280;29070;48.102;-1.652;2022-12-05T11:16:01;101744.81;;;6.19;77.64
39949;BME280;29070;48.102;-1.652;2022-12-05T11:21:12;101750.00;;;6.29;77.57
39949;BME280;29070;48.102;-1.652;2022-12-05T11:26:33;101749.56;;;6.34;77.54
39949;BME280;29070;48.102;-1.652;2022-12-05T11:31:37;101750.38;;;6.34;77.48
39949;BME280;29070;48.102;-1.652;2022-12-05T11:36:49;101733.63;;;6.46;77.69
39949;BME280;29070;48.102;-1.652;2022-12-05T11:52:53;101705.94;;;6.63;77.56
39949;BME280;29070;48.102;-1.652;2022-12-05T11:58:19;101706.94;;;6.53;77.13
39949;BME280;29070;48.102;-1.652;2022-12-05T12:03:37;101705.13;;;6.63;77.27
39949;BME280;29070;48.102;-1.652;2022-12-05T12:14:19;101689.97;;;6.76;77.05
39949;BME280;29070;48.102;-1.652;2022-12-05T12:25:07;101685.81;;;6.83;76.88
39949;BME280;29070;48.102;-1.652;2022-12-05T12:35:50;101696.91;;;6.85;76.52
39949;BME280;29070;48.102;-1.652;2022-12-05T12:51:51;101685.03;;;6.73;76.04
39949;BME280;29070;48.102;-1.652;2022-12-05T13:02:20;101677.34;;;6.72;75.73
39949;BME280;29070;48.102;-1.652;2022-12-05T13:07:30;101686.13;;;6.71;75.71
39949;BME280;29070;48.102;-1.652;2022-12-05T13:12:36;101682.44;;;6.73;76.06
39949;BME280;29070;48.102;-1.652;2022-12-05T13:17:40;101679.03;;;6.63;75.67
39949;BME280;29070;48.102;-1.652;2022-12-05T13:22:42;101688.13;;;6.59;75.79
39949;BME280;29070;48.102;-1.652;2022-12-05T13:28:24;101683.47;;;6.53;75.71
39949;BME280;29070;48.102;-1.652;2022-12-05T13:38:37;101688.69;;;6.53;75.53
39949;BME280;29070;48.102;-1.652;2022-12-05T13:43:59;101700.34;;;6.58;75.74
39949;BME280;29070;48.102;-1.652;2022-12-05T13:49:15;101705.41;;;6.60;75.95
39949;BME280;29070;48.102;-1.652;2022-12-05T13:54:21;101692.91;;;6.63;75.62
39949;BME280;29070;48.102;-1.652;2022-12-05T14:04:47;101704.09;;;6.74;75.69
39949;BME280;29070;48.102;-1.652;2022-12-05T14:09:53;101695.47;;;6.73;75.59
39949;BME280;29070;48.102;-1.652;2022-12-05T14:30:32;101695.75;;;6.70;75.08
39949;BME280;29070;48.102;-1.652;2022-12-05T14:35:43;101706.44;;;6.77;75.48
39949;BME280;29070;48.102;-1.652;2022-12-05T14:40:46;101696.25;;;6.83;75.56
39949;BME280;29070;48.102;-1.652;2022-12-05T14:50:53;101723.09;;;6.94;75.40
39949;BME280;29070;48.102;-1.652;2022-12-05T15:12:22;101733.91;;;6.99;74.91
39949;BME280;29070;48.102;-1.652;2022-12-05T15:17:36;101745.03;;;7.01;75.10
39949;BME280;29070;48.102;-1.652;2022-12-05T15:22:37;101735.19;;;6.95;74.88
39949;BME280;29070;48.102;-1.652;2022-12-05T15:27:37;101740.41;;;6.95;74.58
39949;BME280;29070;48.102;-1.652;2022-12-05T15:32:37;101740.69;;;6.92;74.68
39949;BME280;29070;48.102;-1.652;2022-12-05T15:42:53;101745.72;;;6.75;74.39
39949;BME280;29070;48.102;-1.652;2022-12-05T15:53:16;101750.13;;;6.75;74.31
39949;BME280;29070;48.102;-1.652;2022-12-05T15:58:27;101752.59;;;6.76;74.29
39949;BME280;29070;48.102;-1.652;2022-12-05T16:08:48;101746.84;;;6.73;74.04
39949;BME280;29070;48.102;-1.652;2022-12-05T16:13:51;101759.63;;;6.66;74.00
39949;BME280;29070;48.102;-1.652;2022-12-05T16:18:58;101767.47;;;6.56;73.88
39949;BME280;29070;48.102;-1.652;2022-12-05T16:24:20;101768.88;;;6.51;74.31
39949;BME280;29070;48.102;-1.652;2022-12-05T16:29:26;101759.66;;;6.56;74.25
39949;BME280;29070;48.102;-1.652;2022-12-05T16:34:28;101768.31;;;6.57;74.48
39949;BME280;29070;48.102;-1.652;2022-12-05T16:39:31;101778.44;;;6.60;74.58
39949;BME280;29070;48.102;-1.652;2022-12-05T16:44:56;101774.06;;;6.60;74.18
39949;BME280;29070;48.102;-1.652;2022-12-05T16:50:37;101773.94;;;6.62;74.32
39949;BME280;29070;48.102;-1.652;2022-12-05T16:55:38;101768.31;;;6.57;74.66
39949;BME280;29070;48.102;-1.652;2022-12-05T17:00:41;101772.59;;;6.48;74.42
39949;BME280;29070;48.102;-1.652;2022-12-05T17:05:41;101765.91;;;6.36;74.19
39949;BME280;29070;48.102;-1.652;2022-12-05T17:10:42;101768.38;;;6.27;74.14
39949;BME280;29070;48.102;-1.652;2022-12-05T17:15:43;101764.28;;;6.25;73.66
39949;BME280;29070;48.102;-1.652;2022-12-05T17:20:45;101767.03;;;6.23;73.98
39949;BME280;29070;48.102;-1.652;2022-12-05T17:25:49;101763.59;;;6.23;73.67
39949;BME280;29070;48.102;-1.652;2022-12-05T17:30:50;101762.22;;;6.19;73.88
39949;BME280;29070;48.102;-1.652;2022-12-05T17:35:51;101770.59;;;6.13;73.87
39949;BME280;29070;48.102;-1.652;2022-12-05T17:40:51;101761.84;;;6.14;73.88
39949;BME280;29070;48.102;-1.652;2022-12-05T17:45:51;101771.72;;;6.10;73.58
39949;BME280;29070;48.102;-1.652;2022-12-05T17:50:54;101768.94;;;6.11;73.85
39949;BME280;29070;48.102;-1.652;2022-12-05T17:55:56;101786.78;;;6.16;73.91
39949;BME280;29070;48.102;-1.652;2022-12-05T18:00:57;101777.47;;;6.14;73.59
39949;BME280;29070;48.102;-1.652;2022-12-05T18:05:58;101764.03;;;6.08;73.41
39949;BME280;29070;48.102;-1.652;2022-12-05T18:10:58;101759.09;;;6.05;73.58
39949;BME280;29070;48.102;-1.652;2022-12-05T18:15:59;101756.06;;;6.00;73.31
39949;BME280;29070;48.102;-1.652;2022-12-05T18:21:07;101769.25;;;5.99;73.34
39949;BME280;29070;48.102;-1.652;2022-12-05T18:26:09;101775.69;;;6.04;73.70
39949;BME280;29070;48.102;-1.652;2022-12-05T18:31:14;101770.75;;;6.01;73.38
39949;BME280;29070;48.102;-1.652;2022-12-05T18:36:18;101766.22;;;6.03;73.43
39949;BME280;29070;48.102;-1.652;2022-12-05T18:41:19;101776.66;;;6.03;73.24
39949;BME280;29070;48.102;-1.652;2022-12-05T18:46:20;101778.16;;;6.06;73.45
39949;BME280;29070;48.102;-1.652;2022-12-05T18:51:22;101786.09;;;6.04;73.21
39949;BME280;29070;48.102;-1.652;2022-12-05T18:56:28;101796.25;;;6.07;73.58
39949;BME280;29070;48.102;-1.652;2022-12-05T19:01:34;101786.09;;;6.04;73.09
39949;BME280;29070;48.102;-1.652;2022-12-05T19:06:35;101794.34;;;6.09;73.52
39949;BME280;29070;48.102;-1.652;2022-12-05T19:11:39;101811.22;;;6.05;73.23
39949;BME280;29070;48.102;-1.652;2022-12-05T19:16:39;101806.00;;;6.05;73.35
39949;BME280;29070;48.102;-1.652;2022-12-05T19:21:40;101809.56;;;6.04;73.30
39949;BME280;29070;48.102;-1.652;2022-12-05T19:26:41;101814.50;;;6.07;73.03
39949;BME280;29070;48.102;-1.652;2022-12-05T19:31:42;101820.25;;;6.11;73.33
39949;BME280;29070;48.102;-1.652;2022-12-05T19:36:44;101833.44;;;6.09;73.32
39949;BME280;29070;48.102;-1.652;2022-12-05T19:41:44;101831.81;;;6.08;73.42
39949;BME280;29070;48.102;-1.652;2022-12-05T19:46:47;101839.63;;;6.08;73.42
39949;BME280;29070;48.102;-1.652;2022-12-05T19:51:47;101847.44;;;6.08;73.18
39949;BME280;29070;48.102;-1.652;2022-12-05T19:56:48;101853.47;;;6.09;73.05
39949;BME280;29070;48.102;-1.652;2022-12-05T20:01:48;101854.28;;;6.09;73.25
39949;BME280;29070;48.102;-1.652;2022-12-05T20:06:48;101855.25;;;6.08;72.95
39949;BME280;29070;48.102;-1.652;2022-12-05T20:11:49;101843.84;;;6.09;72.95
39949;BME280;29070;48.102;-1.652;2022-12-05T20:16:51;101838.94;;;6.06;72.85
39949;BME280;29070;48.102;-1.652;2022-12-05T20:21:51;101829.47;;;6.05;72.86
39949;BME280;29070;48.102;-1.652;2022-12-05T20:26:54;101815.63;;;6.05;73.18
39949;BME280;29070;48.102;-1.652;2022-12-05T20:31:54;101823.31;;;6.06;72.88
39949;BME280;29070;48.102;-1.652;2022-12-05T20:36:57;101821.66;;;6.05;73.07
39949;BME280;29070;48.102;-1.652;2022-12-05T20:41:57;101810.53;;;6.03;72.94
39949;BME280;29070;48.102;-1.652;2022-12-05T20:46:57;101801.06;;;6.02;72.92
39949;BME280;29070;48.102;-1.652;2022-12-05T20:51:58;101790.63;;;6.02;73.13
39949;BME280;29070;48.102;-1.652;2022-12-05T20:56:58;101792.28;;;6.03;73.11
39949;BME280;29070;48.102;-1.652;2022-12-05T21:01:58;101784.06;;;5.98;72.89
39949;BME280;29070;48.102;-1.652;2022-12-05T21:06:59;101790.38;;;5.96;72.84
39949;BME280;29070;48.102;-1.652;2022-12-05T21:11:59;101793.81;;;5.96;72.66
39949;BME280;29070;48.102;-1.652;2022-12-05T21:17:00;101792.56;;;5.90;72.58
39949;BME280;29070;48.102;-1.652;2022-12-05T21:22:00;101784.59;;;5.92;72.83
39949;BME280;29070;48.102;-1.652;2022-12-05T21:27:00;101777.19;;;5.87;72.70
39949;BME280;29070;48.102;-1.652;2022-12-05T21:32:01;101781.59;;;5.87;72.63
39949;BME280;29070;48.102;-1.652;2022-12-05T21:37:01;101774.31;;;5.90;72.87
39949;BME280;29070;48.102;-1.652;2022-12-05T21:42:02;101768.97;;;5.92;72.70
39949;BME280;29070;48.102;-1.652;2022-12-05T21:47:02;101774.19;;;5.92;72.75
39949;BME280;29070;48.102;-1.652;2022-12-05T21:52:03;101778.41;;;5.93;73.03
39949;BME280;29070;48.102;-1.652;2022-12-05T21:57:03;101783.63;;;5.93;72.78
39949;BME280;29070;48.102;-1.652;2022-12-05T22:02:04;101775.25;;;5.89;72.82
39949;BME280;29070;48.102;-1.652;2022-12-05T22:07:04;101770.03;;;5.89;72.59
39949;BME280;29070;48.102;-1.652;2022-12-05T22:12:04;101772.91;;;5.86;72.62
39949;BME280;29070;48.102;-1.652;2022-12-05T22:17:05;101778.56;;;5.82;72.82
39949;BME280;29070;48.102;-1.652;2022-12-05T22:22:05;101780.59;;;5.68;72.57
39949;BME280;29070;48.102;-1.652;2022-12-05T22:27:05;101787.19;;;5.63;72.80
39949;BME280;29070;48.102;-1.652;2022-12-05T22:32:06;101791.28;;;5.56;72.71
39949;BME280;29070;48.102;-1.652;2022-12-05T22:37:06;101795.38;;;5.48;72.58
39949;BME280;29070;48.102;-1.652;2022-12-05T22:42:06;101791.00;;;5.39;72.65
39949;BME280;29070;48.102;-1.652;2022-12-05T22:47:07;101786.03;;;5.26;72.86
39949;BME280;29070;48.102;-1.652;2022-12-05T22:52:07;101794.09;;;5.13;73.04
39949;BME280;29070;48.102;-1.652;2022-12-05T22:57:07;101785.00;;;5.08;73.14
39949;BME280;29070;48.102;-1.652;2022-12-05T23:02:08;101794.03;;;5.04;73.20
39949;BME280;29070;48.102;-1.652;2022-12-05T23:07:08;101792.53;;;5.01;73.19
39949;BME280;29070;48.102;-1.652;2022-12-05T23:12:08;101790.19;;;4.98;73.31
39949;BME280;29070;48.102;-1.652;2022-12-05T23:17:09;101788.69;;;4.95;73.17
39949;BME280;29070;48.102;-1.652;2022-12-05T23:22:09;101780.56;;;4.89;73.79
39949;BME280;29070;48.102;-1.652;2022-12-05T23:27:10;101773.03;;;4.86;73.61
39949;BME280;29070;48.102;-1.652;2022-12-05T23:32:11;101767.50;;;4.79;73.53
39949;BME280;29070;48.102;-1.652;2022-12-05T23:37:11;101773.50;;;4.70;73.66
39949;BME280;29070;48.102;-1.652;2022-12-05T23:42:11;101772.81;;;4.68;73.95
39949;BME280;29070;48.102;-1.652;2022-12-05T23:47:12;101787.47;;;4.69;74.21
39949;BME280;29070;48.102;-1.652;2022-12-05T23:52:12;101787.19;;;4.72;74.46
39949;BME280;29070;48.102;-1.652;2022-12-05T23:57:13;101780.38;;;4.71;74.31
